EDT,Max TemperatureF,Mean TemperatureF,Min TemperatureF,Max Dew PointF,MeanDew PointF,Min DewpointF,Max Humidity, Mean Humidity, Min Humidity, Max Sea Level PressureIn, Mean Sea Level PressureIn, Min Sea Level PressureIn, Max VisibilityMiles, Mean VisibilityMiles, Min VisibilityMiles, Max Wind SpeedMPH, Mean Wind SpeedMPH, Max Gust SpeedMPH,PrecipitationIn, CloudCover, Events, WindDirDegrees
2013-5-1,74,53,31,34,30,25,89,53,17,30.47,30.43,30.38,10,10,10,14,3,18,0.00,0,,180
2013-5-2,82,59,36,40,34,19,92,56,19,30.52,30.44,30.34,10,10,10,21,3,28,0.00,3,,95
2013-5-3,67,50,32,43,38,32,96,66,36,30.56,30.47,30.39,10,10,10,13,4,20,0.00,0,,80
2013-5-4,70,53,35,42,37,33,100,63,26,30.38,30.33,30.27,10,10,10,14,4,17,0.00,0,,140
2013-5-5,70,50,29,39,34,28,100,61,22,30.36,30.30,30.22,10,8,1,14,4,18,0.00,2,,136
2013-5-6,74,52,30,46,35,23,93,54,15,30.28,30.22,30.12,10,10,9,12,4,26,0.00,1,,144
2013-5-7,81,59,37,55,43,28,100,58,15,30.18,30.14,30.07,10,9,1,15,4,20,0.00,1,,145
2013-5-8,75,62,49,61,57,50,100,79,57,30.22,30.14,30.06,10,10,6,18,5,28,0.07,5,Rain,122
2013-5-9,65,60,55,59,57,55,100,89,78,30.05,29.96,29.89,10,9,1,8,2,12,0.09,7,Rain-Thunderstorm,137
2013-5-10,81,68,55,57,54,48,100,67,33,29.95,29.91,29.88,10,7,1,12,4,16,0.00,6,,232
2013-5-11,67,62,57,63,60,54,100,89,78,29.88,29.74,29.68,10,6,0,16,6,23,0.39,7,Fog-Rain,167
2013-5-12,70,58,46,61,48,23,100,66,32,29.79,29.65,29.57,10,7,0,25,7,32,0.02,6,Fog-Rain,265
2013-5-13,56,48,39,31,26,23,62,47,32,30.05,29.93,29.81,10,10,10,18,10,29,0.00,5,,267
2013-5-14,60,46,31,34,28,22,96,60,24,30.06,30.02,29.97,10,10,10,20,8,26,0.00,5,,310
2013-5-15,67,48,29,51,38,28,96,60,24,30.06,29.88,29.66,10,9,4,20,5,25,0.09,4,Rain,162
2013-5-16,80,62,43,48,41,31,100,59,17,29.84,29.67,29.62,10,6,0,28,9,37,0.00,3,Fog,290
2013-5-17,69,58,47,42,37,30,80,52,24,30.22,30.04,29.85,10,10,10,21,9,28,0.00,3,,325
2013-5-18,74,56,37,46,40,29,100,60,20,30.32,30.27,30.23,10,10,10,15,3,20,0.00,3,,110
2013-5-19,70,59,47,53,49,45,100,74,47,30.36,30.29,30.21,10,9,2,12,4,17,0.18,7,Rain,101
2013-5-20,78,65,52,61,57,52,100,77,54,30.20,30.03,29.94,10,8,2,14,4,17,0.02,7,Rain,147
2013-5-21,76,63,50,62,54,46,100,82,64,30.06,29.97,29.90,10,7,2,16,5,25,0.83,7,Rain-Thunderstorm,91
2013-5-22,61,56,50,56,52,48,100,92,84,30.02,29.94,29.90,10,7,2,12,4,14,0.59,8,Rain-Thunderstorm,126
2013-5-23,71,61,50,68,59,51,100,91,81,29.94,29.86,29.77,10,5,1,13,5,16,0.28,8,Rain-Thunderstorm,148
2013-5-24,71,59,46,65,57,44,100,82,64,29.86,29.74,29.64,10,9,3,20,9,26,0.36,8,Rain,232
2013-5-25,48,41,34,46,43,33,100,91,82,29.85,29.78,29.74,10,4,2,22,11,29,0.77,8,Rain,323
2013-5-26,57,47,37,39,36,35,92,70,47,30.08,29.85,29.71,10,10,6,25,13,38,0.18,7,Rain,314
2013-5-27,70,51,32,41,34,30,100,62,23,30.19,30.11,30.08,10,10,10,21,6,29,0.00,0,,313
2013-5-28,74,55,35,44,38,34,100,64,27,30.26,30.21,30.16,10,10,10,12,3,18,0.00,0,,149
2013-5-29,62,56,50,60,55,45,100,90,80,30.18,30.09,30.00,10,6,1,7,1,12,0.20,8,Rain-Thunderstorm,77
2013-5-30,88,72,55,65,59,56,100,68,36,30.07,30.03,30.00,10,6,0,20,5,26,0.00,1,Fog,286
2013-5-31,94,76,58,66,61,57,100,65,30,30.09,30.03,29.92,10,6,0,14,4,20,0.00,0,Fog,238